sensor_id;sensor_type;location;lat;lon;timestamp;temperature;humidity
6662;DHT22;3367;48.714;8.994;2024-02-04T00:01:20;7.10;1.00
6662;DHT22;3367;48.714;8.994;2024-02-04T00:03:52;7.10;1.00
6662;DHT22;3367;48.714;8.994;2024-02-04T00:06:19;7.10;1.00
6662;DHT22;3367;48.714;8.994;2024-02-04T00:08:46;7.20;1.00
6662;DHT22;3367;48.714;8.994;2024-02-04T00:11:14;7.20;1.00
6662;DHT22;3367;48.714;8.994;2024-02-04T00:13:45;7.20;1.00
6662;DHT22;3367;48.714;8.994;2024-02-04T00:16:12;7.20;1.00
6662;DHT22;3367;48.714;8.994;2024-02-04T00:18:41;7.20;1.00
6662;DHT22;3367;48.714;8.994;2024-02-04T00:21:11;7.20;1.00
6662;DHT22;3367;48.714;8.994;2024-02-04T00:23:38;7.20;1.00
6662;DHT22;3367;48.714;8.994;2024-02-04T00:26:05;7.20;1.00
6662;DHT22;3367;48.714;8.994;2024-02-04T00:28:33;7.20;1.00
6662;DHT22;3367;48.714;8.994;2024-02-04T00:31:03;7.20;1.00
6662;DHT22;3367;48.714;8.994;2024-02-04T00:33:30;7.20;1.00
6662;DHT22;3367;48.714;8.994;2024-02-04T00:35:57;7.10;1.00
6662;DHT22;3367;48.714;8.994;2024-02-04T00:38:24;7.10;1.00
6662;DHT22;3367;48.714;8.994;2024-02-04T00:40:50;7.10;1.00
6662;DHT22;3367;48.714;8.994;2024-02-04T00:43:28;7.00;1.00
6662;DHT22;3367;48.714;8.994;2024-02-04T00:45:57;7.00;1.00
6662;DHT22;3367;48.714;8.994;2024-02-04T00:48:25;7.00;1.00
6662;DHT22;3367;48.714;8.994;2024-02-04T00:50:52;6.90;1.00
6662;DHT22;3367;48.714;8.994;2024-02-04T00:53:22;6.90;1.00
6662;DHT22;3367;48.714;8.994;2024-02-04T00:55:48;6.90;1.00
6662;DHT22;3367;48.714;8.994;2024-02-04T00:58:15;6.90;1.00
6662;DHT22;3367;48.714;8.994;2024-02-04T01:00:42;6.90;1.00
6662;DHT22;3367;48.714;8.994;2024-02-04T01:03:10;6.90;1.00
6662;DHT22;3367;48.714;8.994;2024-02-04T01:05:37;6.90;1.00
6662;DHT22;3367;48.714;8.994;2024-02-04T01:08:04;6.90;1.00
6662;DHT22;3367;48.714;8.994;2024-02-04T01:10:31;6.90;1.00
6662;DHT22;3367;48.714;8.994;2024-02-04T01:12:57;6.80;1.00
6662;DHT22;3367;48.714;8.994;2024-02-04T01:15:24;6.80;1.00
6662;DHT22;3367;48.714;8.994;2024-02-04T01:17:54;6.80;1.00
6662;DHT22;3367;48.714;8.994;2024-02-04T01:20:22;6.80;1.00
6662;DHT22;3367;48.714;8.994;2024-02-04T01:22:55;6.80;1.00
6662;DHT22;3367;48.714;8.994;2024-02-04T01:25:22;6.80;1.00
6662;DHT22;3367;48.714;8.994;2024-02-04T01:27:49;6.80;1.00
6662;DHT22;3367;48.714;8.994;2024-02-04T01:30:15;6.70;1.00
6662;DHT22;3367;48.714;8.994;2024-02-04T01:32:45;6.70;1.00
6662;DHT22;3367;48.714;8.994;2024-02-04T01:35:12;6.70;1.00
6662;DHT22;3367;48.714;8.994;2024-02-04T01:37:42;6.70;1.00
6662;DHT22;3367;48.714;8.994;2024-02-04T01:40:10;6.60;1.00
6662;DHT22;3367;48.714;8.994;2024-02-04T01:42:42;6.50;1.00
6662;DHT22;3367;48.714;8.994;2024-02-04T01:45:09;6.50;1.00
6662;DHT22;3367;48.714;8.994;2024-02-04T01:47:37;6.50;7.90
6662;DHT22;3367;48.714;8.994;2024-02-04T01:50:05;6.50;90.10
6662;DHT22;3367;48.714;8.994;2024-02-04T01:52:33;6.50;97.90
6662;DHT22;3367;48.714;8.994;2024-02-04T01:55:03;6.50;99.90
6662;DHT22;3367;48.714;8.994;2024-02-04T01:57:31;6.50;99.90
6662;DHT22;3367;48.714;8.994;2024-02-04T01:59:58;6.50;99.90
6662;DHT22;3367;48.714;8.994;2024-02-04T02:02:29;6.50;99.90
6662;DHT22;3367;48.714;8.994;2024-02-04T02:04:57;6.50;99.90
6662;DHT22;3367;48.714;8.994;2024-02-04T02:07:24;6.50;99.90
6662;DHT22;3367;48.714;8.994;2024-02-04T02:09:52;6.50;99.90
6662;DHT22;3367;48.714;8.994;2024-02-04T02:12:25;6.50;99.90
6662;DHT22;3367;48.714;8.994;2024-02-04T02:14:57;6.50;88.60
6662;DHT22;3367;48.714;8.994;2024-02-04T02:17:33;6.60;81.90
6662;DHT22;3367;48.714;8.994;2024-02-04T02:20:08;6.60;95.50
6662;DHT22;3367;48.714;8.994;2024-02-04T02:22:43;6.60;99.90
6662;DHT22;3367;48.714;8.994;2024-02-04T02:25:14;6.50;92.00
6662;DHT22;3367;48.714;8.994;2024-02-04T02:27:47;6.50;66.90
6662;DHT22;3367;48.714;8.994;2024-02-04T02:30:14;6.50;90.30
6662;DHT22;3367;48.714;8.994;2024-02-04T02:32:42;6.50;99.90
6662;DHT22;3367;48.714;8.994;2024-02-04T02:35:09;6.50;99.90
6662;DHT22;3367;48.714;8.994;2024-02-04T02:37:41;6.40;99.90
6662;DHT22;3367;48.714;8.994;2024-02-04T02:40:14;6.40;99.90
6662;DHT22;3367;48.714;8.994;2024-02-04T02:42:43;6.50;99.90
6662;DHT22;3367;48.714;8.994;2024-02-04T02:45:14;6.50;99.90
6662;DHT22;3367;48.714;8.994;2024-02-04T02:47:43;6.50;99.90
6662;DHT22;3367;48.714;8.994;2024-02-04T02:50:11;6.50;99.90
6662;DHT22;3367;48.714;8.994;2024-02-04T02:52:38;6.50;99.90
6662;DHT22;3367;48.714;8.994;2024-02-04T02:55:05;6.50;99.90
6662;DHT22;3367;48.714;8.994;2024-02-04T02:57:33;6.50;99.90
6662;DHT22;3367;48.714;8.994;2024-02-04T03:00:00;6.50;99.90
6662;DHT22;3367;48.714;8.994;2024-02-04T03:02:29;6.50;99.90
6662;DHT22;3367;48.714;8.994;2024-02-04T03:04:59;6.50;99.90
6662;DHT22;3367;48.714;8.994;2024-02-04T03:07:25;6.50;99.90
6662;DHT22;3367;48.714;8.994;2024-02-04T03:09:52;6.50;99.90
6662;DHT22;3367;48.714;8.994;2024-02-04T03:12:19;6.40;99.90
6662;DHT22;3367;48.714;8.994;2024-02-04T03:14:47;6.50;99.90
6662;DHT22;3367;48.714;8.994;2024-02-04T03:17:14;6.40;99.90
6662;DHT22;3367;48.714;8.994;2024-02-04T03:19:46;6.40;99.90
6662;DHT22;3367;48.714;8.994;2024-02-04T03:22:12;6.40;99.90
6662;DHT22;3367;48.714;8.994;2024-02-04T03:24:42;6.50;99.90
6662;DHT22;3367;48.714;8.994;2024-02-04T03:27:08;6.50;99.90
6662;DHT22;3367;48.714;8.994;2024-02-04T03:29:44;6.40;99.90
6662;DHT22;3367;48.714;8.994;2024-02-04T03:32:12;6.50;99.90
6662;DHT22;3367;48.714;8.994;2024-02-04T03:34:42;6.50;99.90
6662;DHT22;3367;48.714;8.994;2024-02-04T03:37:09;6.50;99.90
6662;DHT22;3367;48.714;8.994;2024-02-04T03:39:38;6.50;99.90
6662;DHT22;3367;48.714;8.994;2024-02-04T03:42:08;6.50;99.90
6662;DHT22;3367;48.714;8.994;2024-02-04T03:44:37;6.50;99.90
6662;DHT22;3367;48.714;8.994;2024-02-04T03:47:07;6.50;99.90
6662;DHT22;3367;48.714;8.994;2024-02-04T03:49:35;6.50;99.90
6662;DHT22;3367;48.714;8.994;2024-02-04T03:52:05;6.60;99.90
6662;DHT22;3367;48.714;8.994;2024-02-04T03:54:31;6.50;99.90
6662;DHT22;3367;48.714;8.994;2024-02-04T03:56:57;6.50;99.90
6662;DHT22;3367;48.714;8.994;2024-02-04T03:59:24;6.60;99.90
6662;DHT22;3367;48.714;8.994;2024-02-04T04:01:54;6.60;99.90
6662;DHT22;3367;48.714;8.994;2024-02-04T04:04:23;6.60;99.90
6662;DHT22;3367;48.714;8.994;2024-02-04T04:06:58;6.60;99.90
6662;DHT22;3367;48.714;8.994;2024-02-04T04:09:25;6.60;99.90
6662;DHT22;3367;48.714;8.994;2024-02-04T04:11:55;6.60;99.90
6662;DHT22;3367;48.714;8.994;2024-02-04T04:14:24;6.60;99.90
6662;DHT22;3367;48.714;8.994;2024-02-04T04:16:56;6.60;99.90
6662;DHT22;3367;48.714;8.994;2024-02-04T04:19:25;6.60;99.90
6662;DHT22;3367;48.714;8.994;2024-02-04T04:21:52;6.60;99.90
6662;DHT22;3367;48.714;8.994;2024-02-04T04:24:21;6.60;99.90
6662;DHT22;3367;48.714;8.994;2024-02-04T04:26:47;6.60;99.90
6662;DHT22;3367;48.714;8.994;2024-02-04T04:29:14;6.60;99.90
6662;DHT22;3367;48.714;8.994;2024-02-04T04:31:41;6.60;99.90
6662;DHT22;3367;48.714;8.994;2024-02-04T04:34:08;6.60;99.90
6662;DHT22;3367;48.714;8.994;2024-02-04T04:36:39;6.60;99.90
6662;DHT22;3367;48.714;8.994;2024-02-04T04:39:06;6.60;99.90
6662;DHT22;3367;48.714;8.994;2024-02-04T04:41:34;6.50;99.90
6662;DHT22;3367;48.714;8.994;2024-02-04T04:44:02;6.50;99.90
6662;DHT22;3367;48.714;8.994;2024-02-04T04:46:28;6.50;99.90
6662;DHT22;3367;48.714;8.994;2024-02-04T04:48:55;6.40;99.90
6662;DHT22;3367;48.714;8.994;2024-02-04T04:51:29;6.50;99.90
6662;DHT22;3367;48.714;8.994;2024-02-04T04:53:59;6.40;99.90
6662;DHT22;3367;48.714;8.994;2024-02-04T04:56:29;6.40;99.90
6662;DHT22;3367;48.714;8.994;2024-02-04T04:58:59;6.40;99.90
6662;DHT22;3367;48.714;8.994;2024-02-04T05:01:29;6.40;99.90
6662;DHT22;3367;48.714;8.994;2024-02-04T05:03:56;6.40;99.90
6662;DHT22;3367;48.714;8.994;2024-02-04T05:06:29;6.30;99.90
6662;DHT22;3367;48.714;8.994;2024-02-04T05:08:55;6.30;99.90
6662;DHT22;3367;48.714;8.994;2024-02-04T05:11:22;6.20;99.90
6662;DHT22;3367;48.714;8.994;2024-02-04T05:13:49;6.20;1.00
6662;DHT22;3367;48.714;8.994;2024-02-04T05:16:17;6.20;1.00
6662;DHT22;3367;48.714;8.994;2024-02-04T05:18:44;6.20;1.00
6662;DHT22;3367;48.714;8.994;2024-02-04T05:21:10;6.20;1.00
6662;DHT22;3367;48.714;8.994;2024-02-04T05:23:37;6.20;1.00
6662;DHT22;3367;48.714;8.994;2024-02-04T05:26:05;6.20;1.00
6662;DHT22;3367;48.714;8.994;2024-02-04T05:28:32;6.20;1.00
6662;DHT22;3367;48.714;8.994;2024-02-04T05:30:58;6.20;1.00
6662;DHT22;3367;48.714;8.994;2024-02-04T05:33:30;6.20;1.00
6662;DHT22;3367;48.714;8.994;2024-02-04T05:35:56;6.30;1.00
6662;DHT22;3367;48.714;8.994;2024-02-04T05:38:26;6.20;1.00
6662;DHT22;3367;48.714;8.994;2024-02-04T05:40:53;6.20;99.90
6662;DHT22;3367;48.714;8.994;2024-02-04T05:43:20;6.20;1.00
6662;DHT22;3367;48.714;8.994;2024-02-04T05:45:46;6.30;1.00
6662;DHT22;3367;48.714;8.994;2024-02-04T05:48:16;6.30;99.90
6662;DHT22;3367;48.714;8.994;2024-02-04T05:50:44;6.30;1.00
6662;DHT22;3367;48.714;8.994;2024-02-04T05:53:11;6.30;99.90
6662;DHT22;3367;48.714;8.994;2024-02-04T05:55:38;6.30;99.90
6662;DHT22;3367;48.714;8.994;2024-02-04T05:58:05;6.30;99.90
6662;DHT22;3367;48.714;8.994;2024-02-04T06:00:32;6.30;99.90
6662;DHT22;3367;48.714;8.994;2024-02-04T06:02:59;6.30;99.90
6662;DHT22;3367;48.714;8.994;2024-02-04T06:05:28;6.30;1.00
6662;DHT22;3367;48.714;8.994;2024-02-04T06:07:56;6.30;99.90
6662;DHT22;3367;48.714;8.994;2024-02-04T06:10:23;6.30;1.00
6662;DHT22;3367;48.714;8.994;2024-02-04T06:12:50;6.30;1.00
6662;DHT22;3367;48.714;8.994;2024-02-04T06:15:19;6.30;1.00
6662;DHT22;3367;48.714;8.994;2024-02-04T06:17:47;6.30;99.90
6662;DHT22;3367;48.714;8.994;2024-02-04T06:20:14;6.30;99.90
6662;DHT22;3367;48.714;8.994;2024-02-04T06:22:40;6.40;99.90
6662;DHT22;3367;48.714;8.994;2024-02-04T06:25:09;6.40;99.90
6662;DHT22;3367;48.714;8.994;2024-02-04T06:27:36;6.40;99.90
6662;DHT22;3367;48.714;8.994;2024-02-04T06:30:03;6.40;99.90
6662;DHT22;3367;48.714;8.994;2024-02-04T06:32:32;6.40;99.90
6662;DHT22;3367;48.714;8.994;2024-02-04T06:35:02;6.40;99.90
6662;DHT22;3367;48.714;8.994;2024-02-04T06:37:29;6.40;99.90
6662;DHT22;3367;48.714;8.994;2024-02-04T06:39:55;6.40;99.90
6662;DHT22;3367;48.714;8.994;2024-02-04T06:42:23;6.40;99.90
6662;DHT22;3367;48.714;8.994;2024-02-04T06:44:50;6.50;99.90
6662;DHT22;3367;48.714;8.994;2024-02-04T06:47:19;6.40;99.90
6662;DHT22;3367;48.714;8.994;2024-02-04T06:49:46;6.50;99.90
6662;DHT22;3367;48.714;8.994;2024-02-04T06:52:13;6.50;99.90
6662;DHT22;3367;48.714;8.994;2024-02-04T06:54:39;6.50;99.90
6662;DHT22;3367;48.714;8.994;2024-02-04T06:57:08;6.50;99.90
6662;DHT22;3367;48.714;8.994;2024-02-04T06:59:40;6.50;99.90
6662;DHT22;3367;48.714;8.994;2024-02-04T07:02:09;6.60;99.90
6662;DHT22;3367;48.714;8.994;2024-02-04T07:04:35;6.60;99.90
6662;DHT22;3367;48.714;8.994;2024-02-04T07:07:05;6.60;99.90
6662;DHT22;3367;48.714;8.994;2024-02-04T07:09:31;6.60;99.90
6662;DHT22;3367;48.714;8.994;2024-02-04T07:11:58;6.70;99.90
6662;DHT22;3367;48.714;8.994;2024-02-04T07:14:25;6.70;99.90
6662;DHT22;3367;48.714;8.994;2024-02-04T07:16:56;6.60;99.90
6662;DHT22;3367;48.714;8.994;2024-02-04T07:19:25;6.60;99.90
6662;DHT22;3367;48.714;8.994;2024-02-04T07:21:52;6.60;99.90
6662;DHT22;3367;48.714;8.994;2024-02-04T07:24:24;6.60;99.90
6662;DHT22;3367;48.714;8.994;2024-02-04T07:26:51;6.50;99.90
6662;DHT22;3367;48.714;8.994;2024-02-04T07:29:24;6.60;99.90
6662;DHT22;3367;48.714;8.994;2024-02-04T07:32:01;6.60;99.90
6662;DHT22;3367;48.714;8.994;2024-02-04T07:34:27;6.60;99.90
6662;DHT22;3367;48.714;8.994;2024-02-04T07:36:57;6.50;99.90
6662;DHT22;3367;48.714;8.994;2024-02-04T07:39:27;6.60;99.90
6662;DHT22;3367;48.714;8.994;2024-02-04T07:41:55;6.60;99.90
6662;DHT22;3367;48.714;8.994;2024-02-04T07:44:25;6.70;99.90
6662;DHT22;3367;48.714;8.994;2024-02-04T07:46:55;6.70;99.90
6662;DHT22;3367;48.714;8.994;2024-02-04T07:49:26;6.80;99.90
6662;DHT22;3367;48.714;8.994;2024-02-04T07:51:52;6.80;99.90
6662;DHT22;3367;48.714;8.994;2024-02-04T07:54:18;6.80;99.90
6662;DHT22;3367;48.714;8.994;2024-02-04T07:56:45;7.00;99.90
6662;DHT22;3367;48.714;8.994;2024-02-04T07:59:12;7.10;44.70
6662;DHT22;3367;48.714;8.994;2024-02-04T08:01:46;7.10;1.00
6662;DHT22;3367;48.714;8.994;2024-02-04T08:04:16;7.20;1.00
6662;DHT22;3367;48.714;8.994;2024-02-04T08:06:44;7.30;1.00
6662;DHT22;3367;48.714;8.994;2024-02-04T08:09:11;7.30;1.00
6662;DHT22;3367;48.714;8.994;2024-02-04T08:11:38;7.40;1.00
6662;DHT22;3367;48.714;8.994;2024-02-04T08:14:07;7.50;1.00
6662;DHT22;3367;48.714;8.994;2024-02-04T08:16:34;7.50;1.00
6662;DHT22;3367;48.714;8.994;2024-02-04T08:19:03;7.50;1.00
6662;DHT22;3367;48.714;8.994;2024-02-04T08:21:34;7.40;1.00
6662;DHT22;3367;48.714;8.994;2024-02-04T08:24:02;7.50;1.00
6662;DHT22;3367;48.714;8.994;2024-02-04T08:26:29;7.50;1.00
6662;DHT22;3367;48.714;8.994;2024-02-04T08:28:56;7.50;1.00
6662;DHT22;3367;48.714;8.994;2024-02-04T08:31:23;7.50;1.00
6662;DHT22;3367;48.714;8.994;2024-02-04T08:33:59;7.60;1.00
6662;DHT22;3367;48.714;8.994;2024-02-04T08:36:26;7.70;1.00
6662;DHT22;3367;48.714;8.994;2024-02-04T08:38:52;7.70;1.00
6662;DHT22;3367;48.714;8.994;2024-02-04T08:41:21;7.80;1.00
6662;DHT22;3367;48.714;8.994;2024-02-04T08:43:47;7.80;1.00
6662;DHT22;3367;48.714;8.994;2024-02-04T08:46:14;7.90;99.90
6662;DHT22;3367;48.714;8.994;2024-02-04T08:48:41;7.90;99.90
6662;DHT22;3367;48.714;8.994;2024-02-04T08:51:11;8.00;99.90
6662;DHT22;3367;48.714;8.994;2024-02-04T08:53:41;8.00;99.90
6662;DHT22;3367;48.714;8.994;2024-02-04T08:56:08;8.00;99.90
6662;DHT22;3367;48.714;8.994;2024-02-04T08:58:39;8.00;99.90
6662;DHT22;3367;48.714;8.994;2024-02-04T09:01:09;8.10;99.90
6662;DHT22;3367;48.714;8.994;2024-02-04T09:03:35;8.20;99.90
6662;DHT22;3367;48.714;8.994;2024-02-04T09:06:08;8.30;99.90
6662;DHT22;3367;48.714;8.994;2024-02-04T09:08:35;8.30;99.90
6662;DHT22;3367;48.714;8.994;2024-02-04T09:11:01;8.30;99.90
6662;DHT22;3367;48.714;8.994;2024-02-04T09:13:28;8.30;99.90
6662;DHT22;3367;48.714;8.994;2024-02-04T09:15:56;8.40;99.90
6662;DHT22;3367;48.714;8.994;2024-02-04T09:18:23;8.30;99.90
6662;DHT22;3367;48.714;8.994;2024-02-04T09:21:07;8.30;99.90
6662;DHT22;3367;48.714;8.994;2024-02-04T09:23:36;8.30;99.90
6662;DHT22;3367;48.714;8.994;2024-02-04T09:26:06;8.40;99.90
6662;DHT22;3367;48.714;8.994;2024-02-04T09:28:32;8.30;99.90
6662;DHT22;3367;48.714;8.994;2024-02-04T09:31:01;8.30;99.90
6662;DHT22;3367;48.714;8.994;2024-02-04T09:33:28;8.30;99.90
6662;DHT22;3367;48.714;8.994;2024-02-04T09:35:55;8.40;99.90
6662;DHT22;3367;48.714;8.994;2024-02-04T09:38:25;8.40;99.90
6662;DHT22;3367;48.714;8.994;2024-02-04T09:40:52;8.50;99.90
6662;DHT22;3367;48.714;8.994;2024-02-04T09:43:19;8.50;99.90
6662;DHT22;3367;48.714;8.994;2024-02-04T09:45:49;8.60;99.90
6662;DHT22;3367;48.714;8.994;2024-02-04T09:48:18;8.60;99.90
6662;DHT22;3367;48.714;8.994;2024-02-04T09:50:46;8.70;99.90
6662;DHT22;3367;48.714;8.994;2024-02-04T09:53:23;8.90;99.90
6662;DHT22;3367;48.714;8.994;2024-02-04T09:55:56;9.00;99.90
6662;DHT22;3367;48.714;8.994;2024-02-04T09:58:22;9.10;99.90
6662;DHT22;3367;48.714;8.994;2024-02-04T10:00:51;9.30;99.90
6662;DHT22;3367;48.714;8.994;2024-02-04T10:03:28;9.60;53.70
6662;DHT22;3367;48.714;8.994;2024-02-04T10:05:55;9.60;42.40
6662;DHT22;3367;48.714;8.994;2024-02-04T10:08:22;9.60;14.40
6662;DHT22;3367;48.714;8.994;2024-02-04T10:10:50;9.80;17.70
6662;DHT22;3367;48.714;8.994;2024-02-04T10:13:16;9.90;1.00
6662;DHT22;3367;48.714;8.994;2024-02-04T10:15:43;9.90;1.00
6662;DHT22;3367;48.714;8.994;2024-02-04T10:18:10;10.00;1.00
6662;DHT22;3367;48.714;8.994;2024-02-04T10:20:38;10.00;1.00
6662;DHT22;3367;48.714;8.994;2024-02-04T10:23:05;10.10;1.00
6662;DHT22;3367;48.714;8.994;2024-02-04T10:25:31;10.20;1.00
6662;DHT22;3367;48.714;8.994;2024-02-04T10:27:58;10.30;1.00
6662;DHT22;3367;48.714;8.994;2024-02-04T10:30:25;10.60;1.00
6662;DHT22;3367;48.714;8.994;2024-02-04T10:32:52;10.50;1.00
6662;DHT22;3367;48.714;8.994;2024-02-04T10:35:20;10.40;1.00
6662;DHT22;3367;48.714;8.994;2024-02-04T10:37:50;10.50;1.00
6662;DHT22;3367;48.714;8.994;2024-02-04T10:40:16;10.50;1.00
6662;DHT22;3367;48.714;8.994;2024-02-04T10:42:44;10.60;1.00
6662;DHT22;3367;48.714;8.994;2024-02-04T10:45:11;10.70;1.00
6662;DHT22;3367;48.714;8.994;2024-02-04T10:47:38;10.70;1.00
6662;DHT22;3367;48.714;8.994;2024-02-04T10:50:06;10.90;1.00
6662;DHT22;3367;48.714;8.994;2024-02-04T10:52:36;10.90;1.00
6662;DHT22;3367;48.714;8.994;2024-02-04T10:55:07;10.90;1.00
6662;DHT22;3367;48.714;8.994;2024-02-04T10:57:35;10.90;1.00
6662;DHT22;3367;48.714;8.994;2024-02-04T11:00:02;10.80;1.00
6662;DHT22;3367;48.714;8.994;2024-02-04T11:02:35;10.90;1.00
6662;DHT22;3367;48.714;8.994;2024-02-04T11:05:03;10.80;1.00
6662;DHT22;3367;48.714;8.994;2024-02-04T11:07:32;10.70;1.00
6662;DHT22;3367;48.714;8.994;2024-02-04T11:09:59;10.60;1.00
6662;DHT22;3367;48.714;8.994;2024-02-04T11:12:29;10.50;1.00
6662;DHT22;3367;48.714;8.994;2024-02-04T11:14:58;10.40;1.00
6662;DHT22;3367;48.714;8.994;2024-02-04T11:17:42;10.50;1.00
6662;DHT22;3367;48.714;8.994;2024-02-04T11:20:28;10.60;1.00
6662;DHT22;3367;48.714;8.994;2024-02-04T11:23:11;10.60;1.00
6662;DHT22;3367;48.714;8.994;2024-02-04T11:25:44;10.80;1.00
6662;DHT22;3367;48.714;8.994;2024-02-04T11:28:13;11.00;1.00
6662;DHT22;3367;48.714;8.994;2024-02-04T11:30:42;11.10;1.00
6662;DHT22;3367;48.714;8.994;2024-02-04T11:33:11;11.10;1.00
6662;DHT22;3367;48.714;8.994;2024-02-04T11:35:38;11.10;1.00
6662;DHT22;3367;48.714;8.994;2024-02-04T11:38:05;11.20;1.00
6662;DHT22;3367;48.714;8.994;2024-02-04T11:40:34;11.40;1.00
6662;DHT22;3367;48.714;8.994;2024-02-04T11:43:05;11.20;1.00
6662;DHT22;3367;48.714;8.994;2024-02-04T11:45:37;11.30;1.00
6662;DHT22;3367;48.714;8.994;2024-02-04T11:48:07;11.30;1.00
6662;DHT22;3367;48.714;8.994;2024-02-04T11:50:34;11.50;1.00
6662;DHT22;3367;48.714;8.994;2024-02-04T11:53:08;11.70;1.00
6662;DHT22;3367;48.714;8.994;2024-02-04T11:55:36;11.80;1.00
6662;DHT22;3367;48.714;8.994;2024-02-04T11:58:04;12.00;1.00
6662;DHT22;3367;48.714;8.994;2024-02-04T12:00:33;11.80;1.00
6662;DHT22;3367;48.714;8.994;2024-02-04T12:03:01;12.10;1.00
6662;DHT22;3367;48.714;8.994;2024-02-04T12:05:30;12.00;1.00
6662;DHT22;3367;48.714;8.994;2024-02-04T12:07:59;11.90;1.00
6662;DHT22;3367;48.714;8.994;2024-02-04T12:10:26;11.60;1.00
6662;DHT22;3367;48.714;8.994;2024-02-04T12:12:53;11.50;1.00
6662;DHT22;3367;48.714;8.994;2024-02-04T12:15:21;11.40;1.00
6662;DHT22;3367;48.714;8.994;2024-02-04T12:17:49;11.30;1.00
6662;DHT22;3367;48.714;8.994;2024-02-04T12:20:16;11.30;1.00
6662;DHT22;3367;48.714;8.994;2024-02-04T12:22:43;11.30;1.00
6662;DHT22;3367;48.714;8.994;2024-02-04T12:25:10;11.10;1.00
6662;DHT22;3367;48.714;8.994;2024-02-04T12:27:37;11.10;1.00
6662;DHT22;3367;48.714;8.994;2024-02-04T12:30:05;11.10;1.00
6662;DHT22;3367;48.714;8.994;2024-02-04T12:32:32;11.20;1.00
6662;DHT22;3367;48.714;8.994;2024-02-04T12:35:00;11.20;1.00
6662;DHT22;3367;48.714;8.994;2024-02-04T12:37:33;11.00;1.00
6662;DHT22;3367;48.714;8.994;2024-02-04T12:40:00;10.90;1.00
6662;DHT22;3367;48.714;8.994;2024-02-04T12:42:29;10.80;1.00
6662;DHT22;3367;48.714;8.994;2024-02-04T12:45:01;10.70;1.00
6662;DHT22;3367;48.714;8.994;2024-02-04T12:47:27;10.60;1.00
6662;DHT22;3367;48.714;8.994;2024-02-04T12:50:01;10.60;1.00
6662;DHT22;3367;48.714;8.994;2024-02-04T12:52:28;10.70;1.00
6662;DHT22;3367;48.714;8.994;2024-02-04T12:55:03;10.70;1.00
6662;DHT22;3367;48.714;8.994;2024-02-04T12:57:40;10.70;1.00
6662;DHT22;3367;48.714;8.994;2024-02-04T13:00:07;10.70;1.00
6662;DHT22;3367;48.714;8.994;2024-02-04T13:02:37;10.80;1.00
6662;DHT22;3367;48.714;8.994;2024-02-04T13:05:06;10.60;1.00
6662;DHT22;3367;48.714;8.994;2024-02-04T13:07:33;10.50;1.00
6662;DHT22;3367;48.714;8.994;2024-02-04T13:10:03;10.60;1.00
6662;DHT22;3367;48.714;8.994;2024-02-04T13:12:36;10.60;1.00
6662;DHT22;3367;48.714;8.994;2024-02-04T13:15:05;10.60;1.00
6662;DHT22;3367;48.714;8.994;2024-02-04T13:17:32;10.60;1.00
6662;DHT22;3367;48.714;8.994;2024-02-04T13:20:07;10.60;1.00
6662;DHT22;3367;48.714;8.994;2024-02-04T13:22:37;10.90;1.00
6662;DHT22;3367;48.714;8.994;2024-02-04T13:25:05;10.90;1.00
6662;DHT22;3367;48.714;8.994;2024-02-04T13:27:32;10.90;1.00
6662;DHT22;3367;48.714;8.994;2024-02-04T13:30:02;10.80;1.00
6662;DHT22;3367;48.714;8.994;2024-02-04T13:32:29;10.90;1.00
6662;DHT22;3367;48.714;8.994;2024-02-04T13:34:56;10.70;1.00
6662;DHT22;3367;48.714;8.994;2024-02-04T13:37:24;10.70;1.00
6662;DHT22;3367;48.714;8.994;2024-02-04T13:39:53;10.60;1.00
6662;DHT22;3367;48.714;8.994;2024-02-04T13:42:23;10.70;1.00
6662;DHT22;3367;48.714;8.994;2024-02-04T13:44:50;10.50;1.00
6662;DHT22;3367;48.714;8.994;2024-02-04T13:47:16;10.70;1.00
6662;DHT22;3367;48.714;8.994;2024-02-04T13:49:43;10.70;1.00
6662;DHT22;3367;48.714;8.994;2024-02-04T13:52:10;10.70;1.00
6662;DHT22;3367;48.714;8.994;2024-02-04T13:54:38;10.60;1.00
6662;DHT22;3367;48.714;8.994;2024-02-04T13:57:08;10.70;1.00
6662;DHT22;3367;48.714;8.994;2024-02-04T13:59:36;10.80;1.00
6662;DHT22;3367;48.714;8.994;2024-02-04T14:02:03;10.90;1.00
6662;DHT22;3367;48.714;8.994;2024-02-04T14:04:33;10.90;1.00
6662;DHT22;3367;48.714;8.994;2024-02-04T14:07:09;10.90;1.00
6662;DHT22;3367;48.714;8.994;2024-02-04T14:09:36;10.90;1.00
6662;DHT22;3367;48.714;8.994;2024-02-04T14:12:06;10.80;1.00
6662;DHT22;3367;48.714;8.994;2024-02-04T14:14:33;10.80;1.00
6662;DHT22;3367;48.714;8.994;2024-02-04T14:17:04;10.60;1.00
6662;DHT22;3367;48.714;8.994;2024-02-04T14:19:30;10.50;1.00
6662;DHT22;3367;48.714;8.994;2024-02-04T14:22:00;10.50;1.00
6662;DHT22;3367;48.714;8.994;2024-02-04T14:24:27;10.50;1.00
6662;DHT22;3367;48.714;8.994;2024-02-04T14:26:57;10.60;1.00
6662;DHT22;3367;48.714;8.994;2024-02-04T14:29:31;10.60;1.00
6662;DHT22;3367;48.714;8.994;2024-02-04T14:31:58;10.50;1.00
6662;DHT22;3367;48.714;8.994;2024-02-04T14:34:24;10.50;1.00
6662;DHT22;3367;48.714;8.994;2024-02-04T14:36:59;10.40;1.00
6662;DHT22;3367;48.714;8.994;2024-02-04T14:39:25;10.20;1.00
6662;DHT22;3367;48.714;8.994;2024-02-04T14:41:52;10.10;1.00
6662;DHT22;3367;48.714;8.994;2024-02-04T14:44:25;10.10;1.00
6662;DHT22;3367;48.714;8.994;2024-02-04T14:46:56;10.10;1.00
6662;DHT22;3367;48.714;8.994;2024-02-04T14:49:23;9.90;1.00
6662;DHT22;3367;48.714;8.994;2024-02-04T14:51:50;9.90;6.20
6662;DHT22;3367;48.714;8.994;2024-02-04T14:54:17;9.80;17.00
6662;DHT22;3367;48.714;8.994;2024-02-04T14:56:43;9.70;48.20
6662;DHT22;3367;48.714;8.994;2024-02-04T14:59:13;9.70;55.60
6662;DHT22;3367;48.714;8.994;2024-02-04T15:01:47;9.60;81.30
6662;DHT22;3367;48.714;8.994;2024-02-04T15:04:15;9.70;89.10
6662;DHT22;3367;48.714;8.994;2024-02-04T15:06:48;9.70;78.10
6662;DHT22;3367;48.714;8.994;2024-02-04T15:09:15;9.70;81.90
6662;DHT22;3367;48.714;8.994;2024-02-04T15:11:42;9.60;82.40
6662;DHT22;3367;48.714;8.994;2024-02-04T15:14:12;9.60;84.60
6662;DHT22;3367;48.714;8.994;2024-02-04T15:16:39;9.60;95.40
6662;DHT22;3367;48.714;8.994;2024-02-04T15:19:06;9.60;97.80
6662;DHT22;3367;48.714;8.994;2024-02-04T15:21:38;9.60;98.80
6662;DHT22;3367;48.714;8.994;2024-02-04T15:24:05;9.60;99.90
6662;DHT22;3367;48.714;8.994;2024-02-04T15:26:35;9.60;99.90
6662;DHT22;3367;48.714;8.994;2024-02-04T15:29:09;9.60;99.90
6662;DHT22;3367;48.714;8.994;2024-02-04T15:31:39;9.50;99.90
6662;DHT22;3367;48.714;8.994;2024-02-04T15:34:07;9.50;99.90
6662;DHT22;3367;48.714;8.994;2024-02-04T15:36:34;9.50;99.90
6662;DHT22;3367;48.714;8.994;2024-02-04T15:39:03;9.40;99.90
6662;DHT22;3367;48.714;8.994;2024-02-04T15:41:30;9.40;99.90
6662;DHT22;3367;48.714;8.994;2024-02-04T15:44:00;9.40;99.90
6662;DHT22;3367;48.714;8.994;2024-02-04T15:46:28;9.30;99.90
6662;DHT22;3367;48.714;8.994;2024-02-04T15:48:55;9.30;99.90
6662;DHT22;3367;48.714;8.994;2024-02-04T15:51:25;9.30;99.90
6662;DHT22;3367;48.714;8.994;2024-02-04T15:53:52;9.30;99.90
6662;DHT22;3367;48.714;8.994;2024-02-04T15:56:20;9.30;99.90
6662;DHT22;3367;48.714;8.994;2024-02-04T15:58:56;9.20;99.90
6662;DHT22;3367;48.714;8.994;2024-02-04T16:01:26;9.20;99.90
6662;DHT22;3367;48.714;8.994;2024-02-04T16:03:55;9.20;99.90
6662;DHT22;3367;48.714;8.994;2024-02-04T16:06:23;9.10;99.90
6662;DHT22;3367;48.714;8.994;2024-02-04T16:08:50;9.10;99.90
6662;DHT22;3367;48.714;8.994;2024-02-04T16:11:20;9.10;99.90
6662;DHT22;3367;48.714;8.994;2024-02-04T16:13:53;9.00;99.90
6662;DHT22;3367;48.714;8.994;2024-02-04T16:16:33;9.00;99.90
6662;DHT22;3367;48.714;8.994;2024-02-04T16:19:07;9.00;99.90
6662;DHT22;3367;48.714;8.994;2024-02-04T16:21:34;9.00;99.90
6662;DHT22;3367;48.714;8.994;2024-02-04T16:24:04;8.90;99.90
6662;DHT22;3367;48.714;8.994;2024-02-04T16:26:32;8.90;99.90
6662;DHT22;3367;48.714;8.994;2024-02-04T16:28:59;8.80;99.90
6662;DHT22;3367;48.714;8.994;2024-02-04T16:31:26;8.80;99.90